sensor_id;sensor_type;location;lat;lon;timestamp;P1;durP1;ratioP1;P2;durP2;ratioP2
69161;SDS011;56269;51.738;21.652;2023-02-04T00:00:19;11.77;;;5.15;;
69161;SDS011;56269;51.738;21.652;2023-02-04T00:03:07;17.73;;;8.65;;
69161;SDS011;56269;51.738;21.652;2023-02-04T00:05:33;13.40;;;5.43;;
69161;SDS011;56269;51.738;21.652;2023-02-04T00:07:59;13.15;;;4.70;;
69161;SDS011;56269;51.738;21.652;2023-02-04T00:10:26;15.65;;;6.22;;
69161;SDS011;56269;51.738;21.652;2023-02-04T00:12:52;17.20;;;6.78;;
69161;SDS011;56269;51.738;21.652;2023-02-04T00:15:19;13.65;;;5.38;;
69161;SDS011;56269;51.738;21.652;2023-02-04T00:17:45;13.30;;;5.57;;
69161;SDS011;56269;51.738;21.652;2023-02-04T00:20:11;10.43;;;4.93;;
69161;SDS011;56269;51.738;21.652;2023-02-04T00:22:37;7.47;;;3.22;;
69161;SDS011;56269;51.738;21.652;2023-02-04T00:25:04;12.32;;;4.22;;
69161;SDS011;56269;51.738;21.652;2023-02-04T00:27:30;15.07;;;5.22;;
69161;SDS011;56269;51.738;21.652;2023-02-04T00:29:57;12.97;;;5.07;;
69161;SDS011;56269;51.738;21.652;2023-02-04T00:32:23;16.83;;;7.88;;
69161;SDS011;56269;51.738;21.652;2023-02-04T00:34:50;19.77;;;6.20;;
69161;SDS011;56269;51.738;21.652;2023-02-04T00:37:18;11.77;;;3.67;;
69161;SDS011;56269;51.738;21.652;2023-02-04T00:39:44;11.90;;;5.53;;
69161;SDS011;56269;51.738;21.652;2023-02-04T00:42:10;13.13;;;4.77;;
69161;SDS011;56269;51.738;21.652;2023-02-04T00:44:37;14.05;;;5.07;;
69161;SDS011;56269;51.738;21.652;2023-02-04T00:47:03;13.63;;;4.97;;
69161;SDS011;56269;51.738;21.652;2023-02-04T00:49:30;16.15;;;7.25;;
69161;SDS011;56269;51.738;21.652;2023-02-04T00:51:58;11.30;;;4.60;;
69161;SDS011;56269;51.738;21.652;2023-02-04T00:54:24;11.43;;;4.73;;
69161;SDS011;56269;51.738;21.652;2023-02-04T00:56:52;13.80;;;5.38;;
69161;SDS011;56269;51.738;21.652;2023-02-04T00:59:19;12.55;;;5.13;;
69161;SDS011;56269;51.738;21.652;2023-02-04T01:01:45;15.45;;;3.97;;
69161;SDS011;56269;51.738;21.652;2023-02-04T01:04:11;9.02;;;4.10;;
69161;SDS011;56269;51.738;21.652;2023-02-04T01:06:37;11.43;;;5.57;;
69161;SDS011;56269;51.738;21.652;2023-02-04T01:09:04;9.02;;;3.53;;
69161;SDS011;56269;51.738;21.652;2023-02-04T01:11:31;12.02;;;4.60;;
69161;SDS011;56269;51.738;21.652;2023-02-04T01:13:58;14.30;;;5.43;;
69161;SDS011;56269;51.738;21.652;2023-02-04T01:16:24;8.55;;;3.50;;
69161;SDS011;56269;51.738;21.652;2023-02-04T01:18:50;10.33;;;4.37;;
69161;SDS011;56269;51.738;21.652;2023-02-04T01:21:21;10.93;;;3.80;;
69161;SDS011;56269;51.738;21.652;2023-02-04T01:23:50;13.35;;;5.68;;
69161;SDS011;56269;51.738;21.652;2023-02-04T01:26:20;13.23;;;5.07;;
69161;SDS011;56269;51.738;21.652;2023-02-04T01:28:46;14.45;;;7.95;;
69161;SDS011;56269;51.738;21.652;2023-02-04T01:31:13;12.37;;;5.80;;
69161;SDS011;56269;51.738;21.652;2023-02-04T01:33:40;12.75;;;5.60;;
69161;SDS011;56269;51.738;21.652;2023-02-04T01:36:06;7.38;;;3.20;;
69161;SDS011;56269;51.738;21.652;2023-02-04T01:38:33;11.35;;;4.63;;
69161;SDS011;56269;51.738;21.652;2023-02-04T01:40:59;14.73;;;5.85;;
69161;SDS011;56269;51.738;21.652;2023-02-04T01:43:26;10.93;;;4.40;;
69161;SDS011;56269;51.738;21.652;2023-02-04T01:45:53;10.50;;;4.75;;
69161;SDS011;56269;51.738;21.652;2023-02-04T01:48:20;11.68;;;4.78;;
69161;SDS011;56269;51.738;21.652;2023-02-04T01:50:51;15.77;;;7.63;;
69161;SDS011;56269;51.738;21.652;2023-02-04T01:53:22;13.50;;;4.70;;
69161;SDS011;56269;51.738;21.652;2023-02-04T01:55:50;12.00;;;4.73;;
69161;SDS011;56269;51.738;21.652;2023-02-04T01:58:17;15.07;;;6.60;;
69161;SDS011;56269;51.738;21.652;2023-02-04T02:00:44;10.65;;;4.15;;
69161;SDS011;56269;51.738;21.652;2023-02-04T02:03:11;8.65;;;3.75;;
69161;SDS011;56269;51.738;21.652;2023-02-04T02:05:43;7.53;;;3.55;;
69161;SDS011;56269;51.738;21.652;2023-02-04T02:08:13;15.13;;;6.97;;
69161;SDS011;56269;51.738;21.652;2023-02-04T02:10:40;9.98;;;4.35;;
69161;SDS011;56269;51.738;21.652;2023-02-04T02:13:11;8.95;;;3.38;;
69161;SDS011;56269;51.738;21.652;2023-02-04T02:15:39;7.32;;;3.17;;
69161;SDS011;56269;51.738;21.652;2023-02-04T02:18:06;8.52;;;2.97;;
69161;SDS011;56269;51.738;21.652;2023-02-04T02:20:33;7.50;;;3.00;;
69161;SDS011;56269;51.738;21.652;2023-02-04T02:23:01;10.75;;;4.28;;
69161;SDS011;56269;51.738;21.652;2023-02-04T02:25:41;13.98;;;4.80;;
69161;SDS011;56269;51.738;21.652;2023-02-04T02:28:11;10.57;;;5.00;;
69161;SDS011;56269;51.738;21.652;2023-02-04T02:30:41;10.55;;;4.55;;
69161;SDS011;56269;51.738;21.652;2023-02-04T02:33:10;12.07;;;5.63;;
69161;SDS011;56269;51.738;21.652;2023-02-04T02:35:40;12.98;;;5.05;;
69161;SDS011;56269;51.738;21.652;2023-02-04T02:38:13;9.27;;;4.18;;
69161;SDS011;56269;51.738;21.652;2023-02-04T02:40:40;16.73;;;4.28;;
69161;SDS011;56269;51.738;21.652;2023-02-04T02:43:08;8.18;;;3.75;;
69161;SDS011;56269;51.738;21.652;2023-02-04T02:45:46;11.23;;;4.57;;
69161;SDS011;56269;51.738;21.652;2023-02-04T02:48:13;14.52;;;6.15;;
69161;SDS011;56269;51.738;21.652;2023-02-04T02:50:39;9.73;;;4.78;;
69161;SDS011;56269;51.738;21.652;2023-02-04T02:53:15;12.95;;;5.60;;
69161;SDS011;56269;51.738;21.652;2023-02-04T02:55:43;11.38;;;4.40;;
69161;SDS011;56269;51.738;21.652;2023-02-04T02:58:11;8.77;;;3.10;;
69161;SDS011;56269;51.738;21.652;2023-02-04T03:00:48;12.45;;;5.05;;
69161;SDS011;56269;51.738;21.652;2023-02-04T03:03:16;12.70;;;6.25;;
69161;SDS011;56269;51.738;21.652;2023-02-04T03:05:54;11.90;;;4.80;;
69161;SDS011;56269;51.738;21.652;2023-02-04T03:08:24;9.02;;;2.72;;
69161;SDS011;56269;51.738;21.652;2023-02-04T03:10:51;10.57;;;4.70;;
69161;SDS011;56269;51.738;21.652;2023-02-04T03:13:17;8.23;;;3.72;;
69161;SDS011;56269;51.738;21.652;2023-02-04T03:15:44;10.77;;;4.30;;
69161;SDS011;56269;51.738;21.652;2023-02-04T03:18:13;9.15;;;3.35;;
69161;SDS011;56269;51.738;21.652;2023-02-04T03:20:41;8.30;;;2.92;;
69161;SDS011;56269;51.738;21.652;2023-02-04T03:23:08;9.97;;;2.93;;
69161;SDS011;56269;51.738;21.652;2023-02-04T03:25:34;8.13;;;2.83;;
69161;SDS011;56269;51.738;21.652;2023-02-04T03:28:00;7.03;;;2.60;;
69161;SDS011;56269;51.738;21.652;2023-02-04T03:30:27;8.38;;;3.13;;
69161;SDS011;56269;51.738;21.652;2023-02-04T03:32:53;9.93;;;3.65;;
69161;SDS011;56269;51.738;21.652;2023-02-04T03:35:20;6.60;;;2.43;;
69161;SDS011;56269;51.738;21.652;2023-02-04T03:37:47;8.25;;;2.97;;
69161;SDS011;56269;51.738;21.652;2023-02-04T03:40:14;7.45;;;2.95;;
69161;SDS011;56269;51.738;21.652;2023-02-04T03:42:40;6.68;;;2.40;;
69161;SDS011;56269;51.738;21.652;2023-02-04T03:45:07;8.10;;;3.22;;
69161;SDS011;56269;51.738;21.652;2023-02-04T03:47:33;9.23;;;3.43;;
69161;SDS011;56269;51.738;21.652;2023-02-04T03:49:59;12.35;;;6.32;;
69161;SDS011;56269;51.738;21.652;2023-02-04T03:52:26;5.68;;;2.33;;
69161;SDS011;56269;51.738;21.652;2023-02-04T03:54:52;10.25;;;3.88;;
69161;SDS011;56269;51.738;21.652;2023-02-04T03:57:18;7.70;;;3.50;;
69161;SDS011;56269;51.738;21.652;2023-02-04T03:59:45;8.73;;;2.53;;
69161;SDS011;56269;51.738;21.652;2023-02-04T04:02:11;9.38;;;3.95;;
69161;SDS011;56269;51.738;21.652;2023-02-04T04:04:37;6.57;;;2.63;;
69161;SDS011;56269;51.738;21.652;2023-02-04T04:07:03;7.13;;;2.60;;
69161;SDS011;56269;51.738;21.652;2023-02-04T04:09:30;6.22;;;2.80;;
69161;SDS011;56269;51.738;21.652;2023-02-04T04:11:56;9.50;;;2.78;;
69161;SDS011;56269;51.738;21.652;2023-02-04T04:14:22;6.82;;;2.35;;
69161;SDS011;56269;51.738;21.652;2023-02-04T04:16:48;8.63;;;2.40;;
69161;SDS011;56269;51.738;21.652;2023-02-04T04:19:15;9.30;;;2.75;;
69161;SDS011;56269;51.738;21.652;2023-02-04T04:21:41;9.02;;;1.90;;
69161;SDS011;56269;51.738;21.652;2023-02-04T04:24:07;7.77;;;3.00;;
69161;SDS011;56269;51.738;21.652;2023-02-04T04:26:33;8.73;;;2.72;;
69161;SDS011;56269;51.738;21.652;2023-02-04T04:29:00;5.30;;;1.90;;
69161;SDS011;56269;51.738;21.652;2023-02-04T04:31:26;7.10;;;2.10;;
69161;SDS011;56269;51.738;21.652;2023-02-04T04:33:52;10.40;;;2.35;;
69161;SDS011;56269;51.738;21.652;2023-02-04T04:36:18;5.53;;;1.87;;
69161;SDS011;56269;51.738;21.652;2023-02-04T04:38:45;6.55;;;2.30;;
69161;SDS011;56269;51.738;21.652;2023-02-04T04:41:11;5.45;;;2.00;;
69161;SDS011;56269;51.738;21.652;2023-02-04T04:43:37;4.70;;;1.85;;
69161;SDS011;56269;51.738;21.652;2023-02-04T04:46:03;6.20;;;2.25;;
69161;SDS011;56269;51.738;21.652;2023-02-04T04:48:30;3.87;;;1.70;;
69161;SDS011;56269;51.738;21.652;2023-02-04T04:50:56;13.05;;;3.22;;
69161;SDS011;56269;51.738;21.652;2023-02-04T04:53:23;5.47;;;2.08;;
69161;SDS011;56269;51.738;21.652;2023-02-04T04:55:49;7.60;;;2.30;;
69161;SDS011;56269;51.738;21.652;2023-02-04T04:58:15;5.85;;;2.17;;
69161;SDS011;56269;51.738;21.652;2023-02-04T05:00:41;4.27;;;1.63;;
69161;SDS011;56269;51.738;21.652;2023-02-04T05:03:08;9.40;;;2.65;;
69161;SDS011;56269;51.738;21.652;2023-02-04T05:05:34;5.68;;;1.75;;
69161;SDS011;56269;51.738;21.652;2023-02-04T05:08:05;6.30;;;2.28;;
69161;SDS011;56269;51.738;21.652;2023-02-04T05:10:38;5.00;;;1.73;;
69161;SDS011;56269;51.738;21.652;2023-02-04T05:13:05;6.35;;;2.20;;
69161;SDS011;56269;51.738;21.652;2023-02-04T05:15:31;4.22;;;1.65;;
69161;SDS011;56269;51.738;21.652;2023-02-04T05:17:58;11.30;;;2.22;;
69161;SDS011;56269;51.738;21.652;2023-02-04T05:20:24;5.70;;;2.08;;
69161;SDS011;56269;51.738;21.652;2023-02-04T05:22:50;5.63;;;2.03;;
69161;SDS011;56269;51.738;21.652;2023-02-04T05:25:16;5.50;;;2.10;;
69161;SDS011;56269;51.738;21.652;2023-02-04T05:27:43;3.17;;;1.05;;
69161;SDS011;56269;51.738;21.652;2023-02-04T05:30:10;4.80;;;1.58;;
69161;SDS011;56269;51.738;21.652;2023-02-04T05:32:37;5.53;;;2.10;;
69161;SDS011;56269;51.738;21.652;2023-02-04T05:35:04;6.60;;;2.00;;
69161;SDS011;56269;51.738;21.652;2023-02-04T05:37:32;3.85;;;1.45;;
69161;SDS011;56269;51.738;21.652;2023-02-04T05:39:58;10.07;;;1.83;;
69161;SDS011;56269;51.738;21.652;2023-02-04T05:42:25;3.60;;;1.63;;
69161;SDS011;56269;51.738;21.652;2023-02-04T05:44:51;6.65;;;2.03;;
69161;SDS011;56269;51.738;21.652;2023-02-04T05:47:17;4.05;;;1.60;;
69161;SDS011;56269;51.738;21.652;2023-02-04T05:49:45;3.70;;;1.37;;
69161;SDS011;56269;51.738;21.652;2023-02-04T05:52:11;4.38;;;1.33;;
69161;SDS011;56269;51.738;21.652;2023-02-04T05:54:37;3.90;;;1.65;;
69161;SDS011;56269;51.738;21.652;2023-02-04T05:57:04;3.67;;;1.40;;
69161;SDS011;56269;51.738;21.652;2023-02-04T05:59:30;4.63;;;1.42;;
69161;SDS011;56269;51.738;21.652;2023-02-04T06:01:56;5.07;;;1.60;;
69161;SDS011;56269;51.738;21.652;2023-02-04T06:04:22;6.32;;;2.28;;
69161;SDS011;56269;51.738;21.652;2023-02-04T06:06:49;5.28;;;1.40;;
69161;SDS011;56269;51.738;21.652;2023-02-04T06:09:15;6.53;;;2.20;;
69161;SDS011;56269;51.738;21.652;2023-02-04T06:11:41;7.50;;;1.80;;
69161;SDS011;56269;51.738;21.652;2023-02-04T06:14:07;4.55;;;1.30;;
69161;SDS011;56269;51.738;21.652;2023-02-04T06:16:35;4.30;;;1.75;;
69161;SDS011;56269;51.738;21.652;2023-02-04T06:19:02;6.05;;;2.10;;
69161;SDS011;56269;51.738;21.652;2023-02-04T06:21:28;4.57;;;1.95;;
69161;SDS011;56269;51.738;21.652;2023-02-04T06:23:54;3.55;;;1.30;;
69161;SDS011;56269;51.738;21.652;2023-02-04T06:26:21;4.53;;;1.47;;
69161;SDS011;56269;51.738;21.652;2023-02-04T06:28:47;5.70;;;1.90;;
69161;SDS011;56269;51.738;21.652;2023-02-04T06:31:13;4.07;;;1.23;;
69161;SDS011;56269;51.738;21.652;2023-02-04T06:33:39;3.20;;;1.20;;
69161;SDS011;56269;51.738;21.652;2023-02-04T06:36:06;6.15;;;1.65;;
69161;SDS011;56269;51.738;21.652;2023-02-04T06:38:32;5.80;;;2.10;;
69161;SDS011;56269;51.738;21.652;2023-02-04T06:40:59;4.43;;;1.70;;
69161;SDS011;56269;51.738;21.652;2023-02-04T06:43:25;6.00;;;1.90;;
69161;SDS011;56269;51.738;21.652;2023-02-04T06:45:55;5.80;;;2.22;;
69161;SDS011;56269;51.738;21.652;2023-02-04T06:48:21;4.38;;;1.58;;
69161;SDS011;56269;51.738;21.652;2023-02-04T06:50:48;7.57;;;2.37;;
69161;SDS011;56269;51.738;21.652;2023-02-04T06:53:14;7.10;;;2.20;;
69161;SDS011;56269;51.738;21.652;2023-02-04T06:55:40;6.65;;;2.42;;
69161;SDS011;56269;51.738;21.652;2023-02-04T06:58:07;6.32;;;2.33;;
69161;SDS011;56269;51.738;21.652;2023-02-04T07:00:33;5.47;;;2.05;;
69161;SDS011;56269;51.738;21.652;2023-02-04T07:02:59;8.90;;;2.67;;
69161;SDS011;56269;51.738;21.652;2023-02-04T07:05:26;11.02;;;1.98;;
69161;SDS011;56269;51.738;21.652;2023-02-04T07:07:52;7.60;;;2.70;;
69161;SDS011;56269;51.738;21.652;2023-02-04T07:10:18;6.57;;;2.58;;
69161;SDS011;56269;51.738;21.652;2023-02-04T07:12:47;6.65;;;2.28;;
69161;SDS011;56269;51.738;21.652;2023-02-04T07:15:13;5.00;;;1.90;;
69161;SDS011;56269;51.738;21.652;2023-02-04T07:17:40;11.48;;;3.05;;
69161;SDS011;56269;51.738;21.652;2023-02-04T07:20:06;7.70;;;3.00;;
69161;SDS011;56269;51.738;21.652;2023-02-04T07:22:33;6.85;;;1.95;;
69161;SDS011;56269;51.738;21.652;2023-02-04T07:25:00;5.60;;;2.33;;
69161;SDS011;56269;51.738;21.652;2023-02-04T07:27:26;7.73;;;2.43;;
69161;SDS011;56269;51.738;21.652;2023-02-04T07:29:52;8.05;;;2.50;;
69161;SDS011;56269;51.738;21.652;2023-02-04T07:32:18;6.65;;;2.72;;
69161;SDS011;56269;51.738;21.652;2023-02-04T07:34:45;7.43;;;3.15;;
69161;SDS011;56269;51.738;21.652;2023-02-04T07:37:12;7.63;;;2.15;;
69161;SDS011;56269;51.738;21.652;2023-02-04T07:39:40;5.83;;;2.20;;
69161;SDS011;56269;51.738;21.652;2023-02-04T07:42:06;7.32;;;2.08;;
69161;SDS011;56269;51.738;21.652;2023-02-04T07:44:32;7.22;;;2.53;;
69161;SDS011;56269;51.738;21.652;2023-02-04T07:46:58;5.15;;;1.70;;
69161;SDS011;56269;51.738;21.652;2023-02-04T07:49:25;6.68;;;2.15;;
69161;SDS011;56269;51.738;21.652;2023-02-04T07:51:53;8.97;;;3.60;;
69161;SDS011;56269;51.738;21.652;2023-02-04T07:54:19;6.20;;;2.42;;
69161;SDS011;56269;51.738;21.652;2023-02-04T07:56:45;6.93;;;2.30;;
69161;SDS011;56269;51.738;21.652;2023-02-04T07:59:12;10.43;;;2.80;;
69161;SDS011;56269;51.738;21.652;2023-02-04T08:01:38;7.10;;;2.42;;
69161;SDS011;56269;51.738;21.652;2023-02-04T08:04:04;7.90;;;2.20;;
69161;SDS011;56269;51.738;21.652;2023-02-04T08:06:30;7.78;;;3.00;;
69161;SDS011;56269;51.738;21.652;2023-02-04T08:08:57;8.07;;;2.58;;
69161;SDS011;56269;51.738;21.652;2023-02-04T08:11:23;9.85;;;3.70;;
69161;SDS011;56269;51.738;21.652;2023-02-04T08:13:51;5.40;;;2.10;;
69161;SDS011;56269;51.738;21.652;2023-02-04T08:16:17;7.20;;;2.87;;
69161;SDS011;56269;51.738;21.652;2023-02-04T08:18:44;7.82;;;2.70;;
69161;SDS011;56269;51.738;21.652;2023-02-04T08:21:10;7.05;;;3.00;;
69161;SDS011;56269;51.738;21.652;2023-02-04T08:23:36;7.68;;;2.67;;
69161;SDS011;56269;51.738;21.652;2023-02-04T08:26:09;10.10;;;3.45;;
69161;SDS011;56269;51.738;21.652;2023-02-04T08:28:37;9.67;;;3.80;;
69161;SDS011;56269;51.738;21.652;2023-02-04T08:31:04;9.05;;;3.88;;
69161;SDS011;56269;51.738;21.652;2023-02-04T08:33:31;8.45;;;3.17;;
69161;SDS011;56269;51.738;21.652;2023-02-04T08:35:58;5.47;;;2.10;;
69161;SDS011;56269;51.738;21.652;2023-02-04T08:38:24;7.28;;;2.33;;
69161;SDS011;56269;51.738;21.652;2023-02-04T08:40:50;7.37;;;2.83;;
69161;SDS011;56269;51.738;21.652;2023-02-04T08:43:16;8.93;;;3.40;;
69161;SDS011;56269;51.738;21.652;2023-02-04T08:45:49;4.80;;;1.90;;
69161;SDS011;56269;51.738;21.652;2023-02-04T08:48:15;7.38;;;2.85;;
69161;SDS011;56269;51.738;21.652;2023-02-04T08:50:41;6.13;;;2.30;;
69161;SDS011;56269;51.738;21.652;2023-02-04T08:53:08;8.87;;;2.87;;
69161;SDS011;56269;51.738;21.652;2023-02-04T08:55:34;4.93;;;1.88;;
69161;SDS011;56269;51.738;21.652;2023-02-04T08:58:00;5.00;;;1.95;;
69161;SDS011;56269;51.738;21.652;2023-02-04T09:00:27;6.35;;;2.25;;
69161;SDS011;56269;51.738;21.652;2023-02-04T09:02:54;6.80;;;2.42;;
69161;SDS011;56269;51.738;21.652;2023-02-04T09:05:21;6.10;;;1.80;;
69161;SDS011;56269;51.738;21.652;2023-02-04T09:07:47;7.00;;;2.63;;
69161;SDS011;56269;51.738;21.652;2023-02-04T09:10:13;7.35;;;2.83;;
69161;SDS011;56269;51.738;21.652;2023-02-04T09:12:40;8.30;;;2.67;;
69161;SDS011;56269;51.738;21.652;2023-02-04T09:15:08;4.25;;;1.60;;
69161;SDS011;56269;51.738;21.652;2023-02-04T09:17:36;5.17;;;1.97;;
69161;SDS011;56269;51.738;21.652;2023-02-04T09:20:03;6.10;;;2.22;;
69161;SDS011;56269;51.738;21.652;2023-02-04T09:22:30;5.32;;;1.77;;
69161;SDS011;56269;51.738;21.652;2023-02-04T09:24:57;6.97;;;1.92;;
69161;SDS011;56269;51.738;21.652;2023-02-04T09:27:23;6.60;;;2.10;;
69161;SDS011;56269;51.738;21.652;2023-02-04T09:29:49;7.40;;;2.50;;
69161;SDS011;56269;51.738;21.652;2023-02-04T09:32:16;4.63;;;1.83;;
69161;SDS011;56269;51.738;21.652;2023-02-04T09:34:42;5.95;;;2.33;;
69161;SDS011;56269;51.738;21.652;2023-02-04T09:37:08;4.68;;;1.70;;
69161;SDS011;56269;51.738;21.652;2023-02-04T09:39:34;5.35;;;1.90;;
69161;SDS011;56269;51.738;21.652;2023-02-04T09:42:00;6.67;;;2.13;;
69161;SDS011;56269;51.738;21.652;2023-02-04T09:44:27;5.25;;;1.88;;
69161;SDS011;56269;51.738;21.652;2023-02-04T09:46:58;5.03;;;1.80;;
69161;SDS011;56269;51.738;21.652;2023-02-04T09:49:25;4.15;;;1.67;;
69161;SDS011;56269;51.738;21.652;2023-02-04T09:51:53;5.18;;;1.73;;
69161;SDS011;56269;51.738;21.652;2023-02-04T09:54:21;5.40;;;1.80;;
69161;SDS011;56269;51.738;21.652;2023-02-04T09:56:48;6.50;;;1.63;;
69161;SDS011;56269;51.738;21.652;2023-02-04T09:59:16;5.65;;;1.75;;
69161;SDS011;56269;51.738;21.652;2023-02-04T10:01:46;6.10;;;2.28;;
69161;SDS011;56269;51.738;21.652;2023-02-04T10:04:24;6.05;;;1.90;;
69161;SDS011;56269;51.738;21.652;2023-02-04T10:06:51;3.67;;;1.27;;
69161;SDS011;56269;51.738;21.652;2023-02-04T10:09:17;5.10;;;1.73;;
69161;SDS011;56269;51.738;21.652;2023-02-04T10:11:45;4.53;;;1.60;;
69161;SDS011;56269;51.738;21.652;2023-02-04T10:14:13;4.53;;;1.30;;
69161;SDS011;56269;51.738;21.652;2023-02-04T10:16:43;4.93;;;1.70;;
69161;SDS011;56269;51.738;21.652;2023-02-04T10:19:29;5.90;;;2.03;;
69161;SDS011;56269;51.738;21.652;2023-02-04T10:21:56;7.65;;;2.13;;
69161;SDS011;56269;51.738;21.652;2023-02-04T10:24:23;3.78;;;1.25;;
69161;SDS011;56269;51.738;21.652;2023-02-04T10:26:51;5.13;;;1.73;;
69161;SDS011;56269;51.738;21.652;2023-02-04T10:29:19;5.07;;;1.60;;
69161;SDS011;56269;51.738;21.652;2023-02-04T10:31:50;6.93;;;2.50;;
69161;SDS011;56269;51.738;21.652;2023-02-04T10:34:18;5.53;;;1.83;;
69161;SDS011;56269;51.738;21.652;2023-02-04T10:36:47;5.43;;;1.65;;
69161;SDS011;56269;51.738;21.652;2023-02-04T10:39:16;3.55;;;1.33;;
69161;SDS011;56269;51.738;21.652;2023-02-04T10:41:51;4.47;;;1.60;;
69161;SDS011;56269;51.738;21.652;2023-02-04T10:44:24;6.63;;;2.03;;
69161;SDS011;56269;51.738;21.652;2023-02-04T10:47:05;6.28;;;1.85;;
69161;SDS011;56269;51.738;21.652;2023-02-04T10:49:39;8.07;;;2.20;;
69161;SDS011;56269;51.738;21.652;2023-02-04T10:52:16;8.18;;;2.10;;
69161;SDS011;56269;51.738;21.652;2023-02-04T10:54:44;9.95;;;1.40;;
69161;SDS011;56269;51.738;21.652;2023-02-04T10:57:18;5.43;;;1.37;;
69161;SDS011;56269;51.738;21.652;2023-02-04T10:59:52;5.18;;;1.40;;
69161;SDS011;56269;51.738;21.652;2023-02-04T11:04:54;3.33;;;1.15;;
69161;SDS011;56269;51.738;21.652;2023-02-04T11:07:21;4.75;;;1.60;;
69161;SDS011;56269;51.738;21.652;2023-02-04T11:09:48;2.73;;;1.00;;
69161;SDS011;56269;51.738;21.652;2023-02-04T11:12:21;3.42;;;1.20;;
69161;SDS011;56269;51.738;21.652;2023-02-04T11:18:12;3.17;;;1.25;;
69161;SDS011;56269;51.738;21.652;2023-02-04T11:20:53;4.15;;;1.40;;
69161;SDS011;56269;51.738;21.652;2023-02-04T11:28:48;5.07;;;1.40;;
69161;SDS011;56269;51.738;21.652;2023-02-04T11:33:44;5.38;;;1.42;;
69161;SDS011;56269;51.738;21.652;2023-02-04T11:36:12;3.63;;;1.83;;
69161;SDS011;56269;51.738;21.652;2023-02-04T11:38:43;4.00;;;1.30;;
69161;SDS011;56269;51.738;21.652;2023-02-04T11:41:22;3.78;;;1.17;;
69161;SDS011;56269;51.738;21.652;2023-02-04T11:43:55;4.85;;;1.48;;
69161;SDS011;56269;51.738;21.652;2023-02-04T11:46:22;7.22;;;2.00;;
69161;SDS011;56269;51.738;21.652;2023-02-04T11:48:55;4.57;;;1.30;;
69161;SDS011;56269;51.738;21.652;2023-02-04T11:51:27;4.03;;;1.40;;
69161;SDS011;56269;51.738;21.652;2023-02-04T11:53:56;6.93;;;1.90;;
69161;SDS011;56269;51.738;21.652;2023-02-04T11:56:23;3.15;;;1.02;;
69161;SDS011;56269;51.738;21.652;2023-02-04T11:58:55;4.28;;;1.30;;
69161;SDS011;56269;51.738;21.652;2023-02-04T12:01:23;4.88;;;1.20;;
69161;SDS011;56269;51.738;21.652;2023-02-04T12:03:56;2.10;;;0.80;;
69161;SDS011;56269;51.738;21.652;2023-02-04T12:06:28;2.30;;;0.98;;
69161;SDS011;56269;51.738;21.652;2023-02-04T12:11:30;3.03;;;1.23;;
69161;SDS011;56269;51.738;21.652;2023-02-04T12:13:58;8.77;;;1.50;;
69161;SDS011;56269;51.738;21.652;2023-02-04T12:19:12;5.00;;;1.38;;
69161;SDS011;56269;51.738;21.652;2023-02-04T12:21:38;4.65;;;1.48;;
69161;SDS011;56269;51.738;21.652;2023-02-04T12:24:05;6.47;;;1.55;;
69161;SDS011;56269;51.738;21.652;2023-02-04T12:26:32;3.53;;;1.30;;
69161;SDS011;56269;51.738;21.652;2023-02-04T12:28:58;4.05;;;1.30;;
69161;SDS011;56269;51.738;21.652;2023-02-04T12:31:27;2.47;;;1.00;;
69161;SDS011;56269;51.738;21.652;2023-02-04T12:33:54;5.20;;;1.33;;
69161;SDS011;56269;51.738;21.652;2023-02-04T12:36:20;3.00;;;1.10;;
69161;SDS011;56269;51.738;21.652;2023-02-04T12:38:47;5.23;;;1.30;;
69161;SDS011;56269;51.738;21.652;2023-02-04T12:41:13;3.00;;;1.13;;
69161;SDS011;56269;51.738;21.652;2023-02-04T12:43:39;4.78;;;1.20;;
69161;SDS011;56269;51.738;21.652;2023-02-04T12:46:05;3.95;;;1.10;;
69161;SDS011;56269;51.738;21.652;2023-02-04T12:48:32;2.80;;;1.02;;
69161;SDS011;56269;51.738;21.652;2023-02-04T12:50:58;3.57;;;1.00;;
69161;SDS011;56269;51.738;21.652;2023-02-04T12:53:24;4.97;;;1.40;;
69161;SDS011;56269;51.738;21.652;2023-02-04T12:55:50;3.50;;;0.85;;
69161;SDS011;56269;51.738;21.652;2023-02-04T12:58:17;5.47;;;1.60;;
69161;SDS011;56269;51.738;21.652;2023-02-04T13:00:43;5.22;;;1.70;;
69161;SDS011;56269;51.738;21.652;2023-02-04T13:03:10;4.53;;;1.60;;
69161;SDS011;56269;51.738;21.652;2023-02-04T13:05:36;5.18;;;1.77;;
69161;SDS011;56269;51.738;21.652;2023-02-04T13:08:02;3.42;;;1.00;;
69161;SDS011;56269;51.738;21.652;2023-02-04T13:10:28;8.07;;;2.30;;
69161;SDS011;56269;51.738;21.652;2023-02-04T13:12:56;4.03;;;1.45;;
69161;SDS011;56269;51.738;21.652;2023-02-04T13:15:25;5.63;;;1.43;;
69161;SDS011;56269;51.738;21.652;2023-02-04T13:17:52;5.07;;;1.80;;
69161;SDS011;56269;51.738;21.652;2023-02-04T13:20:18;5.43;;;1.98;;
69161;SDS011;56269;51.738;21.652;2023-02-04T13:22:44;4.85;;;1.63;;
69161;SDS011;56269;51.738;21.652;2023-02-04T13:25:10;6.05;;;2.08;;
69161;SDS011;56269;51.738;21.652;2023-02-04T13:27:37;4.30;;;1.40;;
69161;SDS011;56269;51.738;21.652;2023-02-04T13:30:04;7.15;;;3.28;;
69161;SDS011;56269;51.738;21.652;2023-02-04T13:32:32;3.35;;;1.50;;
69161;SDS011;56269;51.738;21.652;2023-02-04T13:34:58;6.68;;;2.20;;
69161;SDS011;56269;51.738;21.652;2023-02-04T13:37:25;5.25;;;1.75;;
69161;SDS011;56269;51.738;21.652;2023-02-04T13:39:51;6.63;;;1.50;;
69161;SDS011;56269;51.738;21.652;2023-02-04T13:42:17;5.40;;;1.77;;
69161;SDS011;56269;51.738;21.652;2023-02-04T13:44:44;8.07;;;2.42;;
69161;SDS011;56269;51.738;21.652;2023-02-04T13:47:10;5.30;;;2.08;;
69161;SDS011;56269;51.738;21.652;2023-02-04T13:49:36;4.88;;;1.98;;
69161;SDS011;56269;51.738;21.652;2023-02-04T13:52:02;4.50;;;1.73;;
69161;SDS011;56269;51.738;21.652;2023-02-04T13:54:29;5.78;;;1.65;;
69161;SDS011;56269;51.738;21.652;2023-02-04T13:56:55;5.75;;;1.88;;
69161;SDS011;56269;51.738;21.652;2023-02-04T13:59:21;3.17;;;1.33;;
69161;SDS011;56269;51.738;21.652;2023-02-04T14:01:48;5.72;;;2.10;;
69161;SDS011;56269;51.738;21.652;2023-02-04T14:04:14;5.93;;;1.60;;
69161;SDS011;56269;51.738;21.652;2023-02-04T14:06:40;7.15;;;2.13;;
69161;SDS011;56269;51.738;21.652;2023-02-04T14:09:08;6.13;;;1.88;;
69161;SDS011;56269;51.738;21.652;2023-02-04T14:11:37;5.18;;;1.65;;
69161;SDS011;56269;51.738;21.652;2023-02-04T14:14:03;5.05;;;1.58;;
69161;SDS011;56269;51.738;21.652;2023-02-04T14:16:30;3.97;;;1.60;;
69161;SDS011;56269;51.738;21.652;2023-02-04T14:18:56;6.78;;;1.95;;
69161;SDS011;56269;51.738;21.652;2023-02-04T14:21:23;4.53;;;1.45;;
69161;SDS011;56269;51.738;21.652;2023-02-04T14:23:49;4.45;;;2.03;;
69161;SDS011;56269;51.738;21.652;2023-02-04T14:26:15;6.55;;;2.00;;
69161;SDS011;56269;51.738;21.652;2023-02-04T14:28:41;3.40;;;1.43;;
69161;SDS011;56269;51.738;21.652;2023-02-04T14:31:08;3.67;;;1.17;;
69161;SDS011;56269;51.738;21.652;2023-02-04T14:33:34;7.55;;;1.48;;
69161;SDS011;56269;51.738;21.652;2023-02-04T14:36:00;6.47;;;1.90;;
69161;SDS011;56269;51.738;21.652;2023-02-04T14:38:27;4.22;;;1.35;;
69161;SDS011;56269;51.738;21.652;2023-02-04T14:40:59;3.30;;;1.10;;
69161;SDS011;56269;51.738;21.652;2023-02-04T14:43:25;5.13;;;1.40;;
69161;SDS011;56269;51.738;21.652;2023-02-04T14:45:52;2.08;;;0.85;;
69161;SDS011;56269;51.738;21.652;2023-02-04T14:48:18;3.50;;;1.20;;
69161;SDS011;56269;51.738;21.652;2023-02-04T14:50:45;5.25;;;1.88;;